Time;durP1;ratioP1;P1;durP2;ratioP2;P2;SDS_P1;SDS_P2;PMS_P1;PMS_P2;Temp;Humidity;BMP_temperature;BMP_pressure;BME280_temperature;BME280_humidity;BME280_pressure;Samples;Min_cycle;Max_cycle;Signal;HPM_P1;HPM_P2
2023/10/06 00:01:03;;;;;;;1.35;1.23;;;;;;;6.13;100.00;96939.94;1027319;28;20019;-75
2023/10/06 00:01:34;;;;;;;0.20;0.20;;;;;;;6.20;100.00;96947.75;1019123;29;20788;-74
2023/10/06 00:02:07;;;;;;;3.78;1.48;;;;;;;6.21;100.00;96957.19;1022877;29;20086;-74
2023/10/06 00:02:38;;;;;;;0.45;0.45;;;;;;;6.13;100.00;96942.56;1018944;28;20138;-75
2023/10/06 00:03:11;;;;;;;0.47;0.40;;;;;;;6.11;100.00;96936.78;1020435;28;20283;-75
2023/10/06 00:03:44;;;;;;;1.13;0.85;;;;;;;6.16;100.00;96950.97;1026395;28;20865;-74
2023/10/06 00:04:15;;;;;;;0.98;0.57;;;;;;;6.12;100.00;96946.19;1022327;29;20298;-73
2023/10/06 00:04:46;;;;;;;1.48;1.15;;;;;;;6.11;100.00;96949.00;1017228;29;20860;-75
2023/10/06 00:05:16;;;;;;;1.80;1.60;;;;;;;6.13;100.00;96946.97;1016100;29;20276;-74
2023/10/06 00:05:49;;;;;;;0.35;0.30;;;;;;;6.15;100.00;96947.59;1015109;29;20493;-75
2023/10/06 00:06:22;;;;;;;2.92;1.17;;;;;;;6.10;100.00;96952.59;1015414;29;20453;-74
2023/10/06 00:06:54;;;;;;;0.10;0.10;;;;;;;6.10;100.00;96950.81;1019085;29;20271;-75
2023/10/06 00:07:24;;;;;;;0.75;0.38;;;;;;;6.05;100.00;96944.59;1020666;28;20299;-74
2023/10/06 00:07:56;;;;;;;0.15;0.15;;;;;;;6.03;100.00;96946.59;1019149;29;20824;-75
2023/10/06 00:08:32;;;;;;;1.90;1.00;;;;;;;6.03;100.00;96949.19;1022604;28;20054;-75
2023/10/06 00:09:06;;;;;;;0.95;0.93;;;;;;;6.01;100.00;96949.41;1026650;28;20276;-75
2023/10/06 00:09:39;;;;;;;0.63;0.63;;;;;;;6.04;100.00;96954.22;1019937;29;20319;-75
2023/10/06 00:10:20;;;;;;;0.17;0.17;;;;;;;6.03;100.00;96952.59;1023877;28;20374;-75
2023/10/06 00:10:51;;;;;;;0.20;0.20;;;;;;;5.99;100.00;96945.41;1025625;28;20269;-75
2023/10/06 00:11:31;;;;;;;2.33;0.20;;;;;;;6.01;100.00;96948.63;1026988;28;20053;-76
2023/10/06 00:12:05;;;;;;;0.88;0.82;;;;;;;6.01;100.00;96954.63;1026483;28;20258;-74
2023/10/06 00:12:35;;;;;;;2.58;1.30;;;;;;;5.98;100.00;96954.25;1030511;28;20096;-75
2023/10/06 00:13:06;;;;;;;2.22;2.05;;;;;;;5.98;100.00;96951.63;1030639;28;20332;-74
2023/10/06 00:13:37;;;;;;;0.55;0.55;;;;;;;6.04;100.00;96948.22;1026029;28;20019;-74
2023/10/06 00:14:09;;;;;;;6.45;2.03;;;;;;;5.96;100.00;96938.00;1022846;28;20039;-75
2023/10/06 00:14:40;;;;;;;7.28;0.52;;;;;;;5.94;100.00;96938.22;1022325;28;20259;-75
2023/10/06 00:15:22;;;;;;;0.50;0.47;;;;;;;5.98;100.00;96949.03;1020086;29;20262;-75
2023/10/06 00:15:55;;;;;;;0.35;0.35;;;;;;;5.99;100.00;96948.00;1026599;28;20258;-75
2023/10/06 00:16:25;;;;;;;2.08;0.85;;;;;;;5.99;100.00;96942.81;1022436;29;20318;-75
2023/10/06 00:16:59;;;;;;;0.63;0.35;;;;;;;5.96;100.00;96941.41;1018464;29;20284;-76
2023/10/06 00:17:33;;;;;;;0.52;0.52;;;;;;;5.98;100.00;96938.59;1015285;29;20139;-75
2023/10/06 00:18:08;;;;;;;0.40;0.40;;;;;;;5.96;100.00;96938.00;1017001;29;20358;-75
2023/10/06 00:18:38;;;;;;;0.73;0.73;;;;;;;6.00;100.00;96937.41;1021563;28;20263;-75
2023/10/06 00:19:55;;;;;;;0.40;0.40;;;;;;;5.94;100.00;96937.41;1018754;29;20035;-74
2023/10/06 00:20:38;;;;;;;0.52;0.52;;;;;;;5.94;100.00;96938.22;1020578;29;20272;-75
2023/10/06 00:21:15;;;;;;;1.00;0.98;;;;;;;5.90;100.00;96935.19;1018825;29;20362;-75
2023/10/06 00:21:47;;;;;;;0.45;0.45;;;;;;;5.91;100.00;96939.38;1025672;28;20294;-75
2023/10/06 00:22:18;;;;;;;0.68;0.68;;;;;;;5.93;100.00;96943.59;1014867;29;20276;-74
2023/10/06 00:22:49;;;;;;;0.95;0.95;;;;;;;5.93;100.00;96935.78;1018123;29;20271;-75
2023/10/06 00:23:22;;;;;;;1.02;1.02;;;;;;;5.95;100.00;96944.22;1022417;29;20515;-75
2023/10/06 00:23:53;;;;;;;1.65;0.40;;;;;;;5.95;100.00;96939.00;1022500;28;20039;-75
2023/10/06 00:24:25;;;;;;;3.03;1.27;;;;;;;5.92;100.00;96940.19;1022967;28;20266;-75
2023/10/06 00:24:59;;;;;;;0.52;0.52;;;;;;;5.90;100.00;96947.38;1021370;29;20556;-75
2023/10/06 00:25:31;;;;;;;0.40;0.40;;;;;;;5.89;100.00;96945.78;1021607;28;20271;-75
2023/10/06 00:26:04;;;;;;;0.30;0.30;;;;;;;5.87;100.00;96943.41;1023582;28;20329;-75
2023/10/06 00:26:34;;;;;;;2.85;0.65;;;;;;;5.87;100.00;96946.00;1030392;28;20269;-76
2023/10/06 00:27:10;;;;;;;4.40;1.55;;;;;;;5.87;100.00;96943.41;1038503;28;20291;-75
2023/10/06 00:27:41;;;;;;;0.43;0.43;;;;;;;5.81;100.00;96939.00;1030563;28;20621;-75
2023/10/06 00:28:22;;;;;;;0.50;0.50;;;;;;;5.84;100.00;96945.63;1018483;29;20276;-74
2023/10/06 00:28:52;;;;;;;0.75;0.75;;;;;;;5.78;100.00;96928.97;1018567;29;20063;-75
2023/10/06 00:29:23;;;;;;;0.98;0.98;;;;;;;5.83;100.00;96936.97;1022359;29;20343;-75
2023/10/06 00:29:54;;;;;;;0.38;0.38;;;;;;;5.88;100.00;96939.78;1018619;29;20032;-75
2023/10/06 00:30:25;;;;;;;0.32;0.17;;;;;;;5.89;100.00;96936.16;1014693;29;20028;-75
2023/10/06 00:30:57;;;;;;;1.48;0.35;;;;;;;5.87;100.00;96927.78;1018508;29;20295;-74
2023/10/06 00:31:31;;;;;;;1.25;1.05;;;;;;;5.84;100.00;96933.38;1022418;29;20054;-74
2023/10/06 00:32:21;;;;;;;0.57;0.47;;;;;;;5.88;100.00;96939.00;1026756;28;20262;-75
2023/10/06 00:32:54;;;;;;;0.10;0.10;;;;;;;5.87;100.00;96927.78;1029643;28;20292;-76
2023/10/06 00:33:32;;;;;;;0.25;0.25;;;;;;;5.85;100.00;96929.78;1020805;29;20798;-75
2023/10/06 00:34:02;;;;;;;0.63;0.63;;;;;;;5.90;100.00;96943.00;1021947;29;20783;-75
2023/10/06 00:34:34;;;;;;;0.82;0.82;;;;;;;5.89;100.00;96941.38;1018621;29;20275;-75
2023/10/06 00:35:11;;;;;;;0.43;0.43;;;;;;;5.86;100.00;96936.56;1017938;29;20024;-75
2023/10/06 00:35:44;;;;;;;0.28;0.28;;;;;;;5.83;100.00;96934.38;1018438;29;20283;-75
2023/10/06 00:36:14;;;;;;;2.13;1.92;;;;;;;5.91;100.00;96949.00;1015362;29;20274;-74
2023/10/06 00:36:51;;;;;;;2.10;1.88;;;;;;;5.89;100.00;96946.59;1017710;29;20263;-74
2023/10/06 00:37:22;;;;;;;0.60;0.60;;;;;;;5.88;100.00;96933.78;1016750;29;20040;-75
2023/10/06 00:37:53;;;;;;;0.15;0.15;;;;;;;5.91;100.00;96939.38;1023164;28;21225;-75
2023/10/06 00:38:24;;;;;;;1.58;1.48;;;;;;;5.88;100.00;96939.78;1018361;29;20083;-74
2023/10/06 00:38:57;;;;;;;0.22;0.22;;;;;;;5.87;100.00;96942.59;1022498;29;20274;-74
2023/10/06 00:39:30;;;;;;;5.15;1.02;;;;;;;5.86;100.00;96949.59;1018422;29;20283;-75
2023/10/06 00:40:01;;;;;;;2.28;1.55;;;;;;;5.84;100.00;96943.00;1022510;29;20440;-75
2023/10/06 00:40:33;;;;;;;0.25;0.25;;;;;;;5.82;100.00;96945.81;1022376;29;20266;-74
2023/10/06 00:41:07;;;;;;;1.35;1.25;;;;;;;5.78;100.00;96939.41;1021540;29;20023;-76
2023/10/06 00:41:37;;;;;;;2.30;0.68;;;;;;;5.77;100.00;96948.22;1021723;28;20302;-75
2023/10/06 00:42:08;;;;;;;0.63;0.63;;;;;;;5.78;100.00;96949.81;1023220;28;20274;-75
2023/10/06 00:42:39;;;;;;;2.83;0.55;;;;;;;5.80;100.00;96947.00;1025810;28;20035;-75
2023/10/06 00:43:15;;;;;;;0.75;0.75;;;;;;;5.76;100.00;96944.00;1022441;29;20031;-74
2023/10/06 00:43:47;;;;;;;0.60;0.60;;;;;;;5.74;100.00;96940.81;1021540;29;20455;-75
2023/10/06 00:44:21;;;;;;;2.15;0.80;;;;;;;5.73;100.00;96939.19;1022717;29;20275;-75
2023/10/06 00:44:53;;;;;;;0.50;0.50;;;;;;;5.72;100.00;96944.63;1020937;28;20291;-75
2023/10/06 00:45:26;;;;;;;1.02;1.00;;;;;;;5.71;100.00;96938.59;1023660;28;20263;-74
2023/10/06 00:46:00;;;;;;;0.75;0.75;;;;;;;5.70;100.00;96947.44;1023268;28;20346;-73
2023/10/06 00:46:30;;;;;;;3.20;0.75;;;;;;;5.68;100.00;96941.63;1027893;28;20305;-75
2023/10/06 00:47:05;;;;;;;5.28;0.93;;;;;;;5.72;100.00;96944.63;1031254;28;20336;-75
2023/10/06 00:47:38;;;;;;;1.25;1.15;;;;;;;5.66;100.00;96936.59;1026360;28;20442;-74
2023/10/06 00:48:13;;;;;;;1.08;0.40;;;;;;;5.68;100.00;96944.22;1019445;29;20284;-75
2023/10/06 00:48:45;;;;;;;1.15;1.05;;;;;;;5.62;100.00;96943.22;1023140;28;20338;-75
2023/10/06 00:49:18;;;;;;;0.50;0.50;;;;;;;5.63;100.00;96942.22;1028303;28;20274;-74
2023/10/06 00:49:48;;;;;;;1.27;0.90;;;;;;;5.68;100.00;96957.25;1028005;28;20440;-74
2023/10/06 00:50:22;;;;;;;2.95;2.67;;;;;;;5.65;100.00;96950.63;1026315;28;20322;-75
2023/10/06 00:50:57;;;;;;;0.63;0.63;;;;;;;5.67;100.00;96942.63;1014828;29;20087;-75
2023/10/06 00:51:27;;;;;;;0.43;0.43;;;;;;;5.67;100.00;96943.41;1018178;29;20313;-74
2023/10/06 00:51:59;;;;;;;12.27;0.65;;;;;;;5.66;100.00;96941.00;1026503;28;20265;-74
2023/10/06 00:52:33;;;;;;;0.45;0.45;;;;;;;5.68;100.00;96947.63;1024478;28;20031;-76
2023/10/06 00:53:04;;;;;;;0.68;0.43;;;;;;;5.70;100.00;96944.81;1028650;28;20341;-75
2023/10/06 00:53:34;;;;;;;1.58;1.48;;;;;;;5.68;100.00;96944.22;1024341;28;20784;-76
2023/10/06 00:54:07;;;;;;;1.63;1.27;;;;;;;5.73;100.00;96944.41;1022406;28;20047;-75
2023/10/06 00:54:39;;;;;;;0.10;0.10;;;;;;;5.81;100.00;96946.81;1018225;29;20295;-75
2023/10/06 00:55:12;;;;;;;0.70;0.70;;;;;;;5.71;100.00;96937.81;1018944;29;20106;-75
2023/10/06 00:55:44;;;;;;;2.92;2.33;;;;;;;5.78;100.00;96952.41;1022867;28;20305;-75
2023/10/06 00:56:15;;;;;;;0.65;0.65;;;;;;;5.80;100.00;96952.22;1023456;28;20273;-74
2023/10/06 00:56:46;;;;;;;0.93;0.90;;;;;;;5.76;100.00;96940.59;1026243;28;20266;-74
2023/10/06 00:57:19;;;;;;;0.77;0.77;;;;;;;5.74;100.00;96947.81;1018741;29;20290;-73
2023/10/06 00:57:55;;;;;;;0.85;0.85;;;;;;;5.68;100.00;96931.19;1014411;29;20812;-75
2023/10/06 00:58:27;;;;;;;0.90;0.90;;;;;;;5.73;100.00;96946.22;1018896;29;20986;-75
2023/10/06 00:58:58;;;;;;;3.45;0.65;;;;;;;5.74;100.00;96942.63;1022790;29;20294;-75
2023/10/06 00:59:28;;;;;;;1.88;1.77;;;;;;;5.73;100.00;96948.81;1023388;28;20270;-75
2023/10/06 00:59:59;;;;;;;1.00;0.30;;;;;;;5.73;100.00;96944.41;1017233;29;20791;-75
2023/10/06 01:00:37;;;;;;;0.47;0.47;;;;;;;5.73;100.00;96941.78;1025479;28;20027;-75
2023/10/06 01:01:13;;;;;;;1.05;0.88;;;;;;;5.67;100.00;96937.41;1022461;29;20027;-74
2023/10/06 01:01:44;;;;;;;0.75;0.75;;;;;;;5.72;100.00;96944.63;1026435;28;20274;-75
2023/10/06 01:02:15;;;;;;;1.25;1.15;;;;;;;5.69;100.00;96930.19;1024354;28;21061;-75
2023/10/06 01:02:45;;;;;;;0.30;0.30;;;;;;;5.72;100.00;96924.56;1027476;28;20014;-75
2023/10/06 01:03:16;;;;;;;1.30;1.17;;;;;;;5.78;100.00;96939.41;1026578;28;20015;-74
2023/10/06 01:04:42;;;;;;;2.58;1.35;;;;;;;5.79;100.00;96935.78;1022674;29;20091;-75
2023/10/06 01:05:16;;;;;;;0.93;0.93;;;;;;;5.73;100.00;96928.78;1021824;29;20038;-75
2023/10/06 01:05:47;;;;;;;0.52;0.50;;;;;;;5.83;100.00;96938.78;1014805;29;20682;-74
2023/10/06 01:06:17;;;;;;;0.10;0.10;;;;;;;5.94;100.00;96933.00;1018571;29;20256;-75
2023/10/06 01:06:48;;;;;;;0.20;0.20;;;;;;;5.94;100.00;96943.44;1016548;29;20044;-75
2023/10/06 01:07:18;;;;;;;0.55;0.55;;;;;;;5.86;100.00;96931.38;1019826;28;20032;-75
2023/10/06 01:07:49;;;;;;;0.75;0.75;;;;;;;5.93;100.00;96935.78;1026059;28;20062;-75
2023/10/06 01:08:20;;;;;;;1.88;1.27;;;;;;;5.85;100.00;96921.97;1023680;28;20496;-75
2023/10/06 01:08:55;;;;;;;0.75;0.75;;;;;;;6.02;100.00;96940.59;1026621;28;20034;-75
2023/10/06 01:09:35;;;;;;;5.22;1.00;;;;;;;6.09;100.00;96943.19;1022351;29;20341;-72
2023/10/06 01:10:16;;;;;;;0.10;0.10;;;;;;;6.15;100.00;96944.97;1016398;29;20280;-75
2023/10/06 01:10:51;;;;;;;0.52;0.52;;;;;;;6.15;100.00;96947.59;1018352;29;20263;-75
2023/10/06 01:11:26;;;;;;;0.10;0.10;;;;;;;6.14;100.00;96949.41;1022500;29;20756;-75
2023/10/06 01:11:57;;;;;;;0.47;0.47;;;;;;;6.14;100.00;96944.19;1024227;28;20273;-74
2023/10/06 01:12:31;;;;;;;2.45;1.90;;;;;;;6.12;100.00;96945.38;1026422;28;20284;-75
2023/10/06 01:13:11;;;;;;;1.20;1.00;;;;;;;6.06;100.00;96940.97;1028254;28;20495;-76
2023/10/06 01:13:53;;;;;;;;;;;;;;;5.94;100.00;96913.97;1026699;28;20408;-74
2023/10/06 01:14:27;;;;;;;;;;;;;;;6.12;100.00;96948.78;1030319;28;20538;-75
2023/10/06 01:15:15;;;;;;;0.20;0.20;;;;;;;6.07;100.00;96942.56;1025842;28;19934;-74
2023/10/06 01:15:49;;;;;;;0.22;0.20;;;;;;;6.11;100.00;96946.41;1029680;28;20339;-75
2023/10/06 01:16:30;;;;;;;0.63;0.38;;;;;;;6.07;100.00;96947.78;1030387;28;20278;-76
2023/10/06 01:17:16;;;;;;;0.17;0.17;;;;;;;6.07;100.00;96947.78;1030554;28;20644;-75
2023/10/06 01:17:47;;;;;;;0.45;0.45;;;;;;;5.99;100.00;96935.78;1030424;28;20911;-75
2023/10/06 01:18:23;;;;;;;0.80;0.80;;;;;;;6.02;100.00;96939.78;1026607;28;20332;-74
2023/10/06 01:19:00;;;;;;;0.82;0.73;;;;;;;6.04;100.00;96938.59;1025906;28;20066;-74
2023/10/06 01:19:33;;;;;;;0.98;0.82;;;;;;;6.01;100.00;96940.81;1029811;28;20278;-76
2023/10/06 01:20:04;;;;;;;0.85;0.35;;;;;;;6.00;100.00;96940.00;1028469;28;20281;-75
2023/10/06 01:20:41;;;;;;;0.50;0.50;;;;;;;5.99;100.00;96935.00;1030008;28;20278;-76
2023/10/06 01:21:17;;;;;;;0.68;0.68;;;;;;;5.96;100.00;96938.00;1034675;28;20037;-75
2023/10/06 01:21:48;;;;;;;1.17;1.17;;;;;;;5.96;100.00;96938.00;1028229;28;20270;-75
2023/10/06 01:22:25;;;;;;;0.32;0.32;;;;;;;5.92;100.00;96929.75;1026709;28;20274;-76
2023/10/06 01:22:56;;;;;;;0.95;0.95;;;;;;;5.84;100.00;96925.56;1018348;28;20283;-75
2023/10/06 01:23:27;;;;;;;0.47;0.47;;;;;;;5.89;100.00;96933.56;1016014;29;20272;-76
2023/10/06 01:23:58;;;;;;;1.08;1.08;;;;;;;5.88;100.00;96925.97;1014651;29;20043;-74
2023/10/06 01:24:29;;;;;;;3.17;0.98;;;;;;;5.86;100.00;96926.16;1013879;29;20276;-75
2023/10/06 01:25:03;;;;;;;0.57;0.57;;;;;;;5.92;100.00;96929.75;1013384;29;20413;-75
2023/10/06 01:25:34;;;;;;;0.95;0.85;;;;;;;5.89;100.00;96930.16;1018605;29;20303;-75
2023/10/06 01:26:05;;;;;;;2.65;2.08;;;;;;;5.89;100.00;96941.38;1023508;28;20390;-76
2023/10/06 01:26:41;;;;;;;0.55;0.55;;;;;;;5.87;100.00;96932.19;1026105;28;20688;-74
2023/10/06 01:27:11;;;;;;;1.08;0.65;;;;;;;5.83;100.00;96936.19;1030113;28;20279;-74
2023/10/06 01:27:44;;;;;;;1.27;0.75;;;;;;;5.83;100.00;96934.38;1029697;28;20268;-76
2023/10/06 01:28:14;;;;;;;0.47;0.38;;;;;;;5.76;100.00;96924.97;1027005;28;20030;-74
2023/10/06 01:28:45;;;;;;;0.45;0.45;;;;;;;5.80;100.00;96926.16;1022974;29;20274;-75
2023/10/06 01:29:15;;;;;;;0.43;0.28;;;;;;;5.80;100.00;96931.38;1023594;29;20039;-75
2023/10/06 01:29:46;;;;;;;1.17;1.10;;;;;;;5.78;100.00;96921.16;1026157;28;20089;-74
2023/10/06 01:30:17;;;;;;;0.47;0.45;;;;;;;5.78;100.00;96926.38;1027034;28;20035;-74
2023/10/06 01:30:49;;;;;;;0.63;0.52;;;;;;;5.87;100.00;96932.97;1026521;28;20432;-75
2023/10/06 01:31:19;;;;;;;0.55;0.55;;;;;;;5.79;100.00;96925.38;1031192;28;20269;-75
2023/10/06 01:31:50;;;;;;;1.05;0.52;;;;;;;5.85;100.00;96934.97;1018667;29;20271;-75
2023/10/06 01:32:21;;;;;;;0.30;0.30;;;;;;;5.83;100.00;96929.16;1019010;29;20043;-75
2023/10/06 01:32:51;;;;;;;0.65;0.65;;;;;;;5.85;100.00;96934.97;1022774;28;20720;-75
2023/10/06 01:33:22;;;;;;;0.98;0.98;;;;;;;5.82;100.00;96932.78;1019393;29;20039;-75
2023/10/06 01:33:54;;;;;;;0.35;0.35;;;;;;;5.75;100.00;96918.16;1019071;29;20429;-74
2023/10/06 01:34:24;;;;;;;0.10;0.10;;;;;;;5.80;100.00;96933.97;1023250;28;20050;-75
2023/10/06 01:34:55;;;;;;;0.80;0.73;;;;;;;5.82;100.00;96929.38;1026540;28;20285;-75
2023/10/06 01:35:26;;;;;;;0.30;0.30;;;;;;;5.79;100.00;96930.56;1023632;28;20027;-75
2023/10/06 01:35:59;;;;;;;0.90;0.90;;;;;;;5.76;100.00;96920.56;1027082;28;20105;-75
2023/10/06 01:36:30;;;;;;;0.35;0.35;;;;;;;5.79;100.00;96929.78;1019067;29;20272;-75
2023/10/06 01:37:03;;;;;;;1.13;1.02;;;;;;;5.74;100.00;96919.97;1015680;29;20409;-75
2023/10/06 01:37:33;;;;;;;3.83;0.90;;;;;;;5.78;100.00;96926.38;1023074;28;20312;-75
2023/10/06 01:38:05;;;;;;;0.17;0.17;;;;;;;5.80;100.00;96929.59;1027044;28;20278;-75
2023/10/06 01:38:36;;;;;;;0.70;0.70;;;;;;;5.77;100.00;96929.16;1025724;28;20109;-75
2023/10/06 01:39:16;;;;;;;1.20;1.10;;;;;;;5.76;100.00;96925.75;1023387;29;20267;-75
2023/10/06 01:39:48;;;;;;;0.45;0.43;;;;;;;5.76;100.00;96928.38;1020165;29;20722;-76
2023/10/06 01:40:56;;;;;;;0.60;0.60;;;;;;;5.72;100.00;96919.38;1021424;29;20260;-75
2023/10/06 01:41:26;;;;;;;1.05;1.05;;;;;;;5.62;100.00;96917.16;1024463;28;20784;-74
2023/10/06 01:41:57;;;;;;;0.30;0.30;;;;;;;5.71;100.00;96927.41;1019335;29;20256;-75
2023/10/06 01:42:30;;;;;;;0.88;0.73;;;;;;;5.74;100.00;96925.19;1019189;29;20027;-75
2023/10/06 01:43:09;;;;;;;0.45;0.45;;;;;;;5.73;100.00;96926.16;1016497;29;20675;-74
2023/10/06 01:43:39;;;;;;;0.13;0.13;;;;;;;5.75;100.00;96923.38;1022223;28;20264;-75
2023/10/06 01:44:12;;;;;;;1.88;0.73;;;;;;;5.68;100.00;96923.38;1027277;28;20270;-75
2023/10/06 01:44:43;;;;;;;0.90;0.47;;;;;;;5.70;100.00;96921.38;1026913;28;20039;-75
2023/10/06 01:45:15;;;;;;;0.98;0.80;;;;;;;5.68;100.00;96920.78;1024822;28;20283;-75
2023/10/06 01:45:45;;;;;;;0.35;0.35;;;;;;;5.70;100.00;96926.59;1027327;28;20354;-75
2023/10/06 01:46:16;;;;;;;3.10;1.00;;;;;;;5.70;100.00;96929.19;1028720;28;20282;-74
2023/10/06 01:46:53;;;;;;;0.25;0.25;;;;;;;5.65;100.00;96923.78;1031323;28;20049;-74
2023/10/06 01:47:29;;;;;;;0.60;0.60;;;;;;;5.67;100.00;96917.38;1027924;28;20030;-75
2023/10/06 01:48:33;;;;;;;1.45;1.35;;;;;;;5.74;100.00;96925.19;1027042;28;20278;-74
2023/10/06 01:48:56;;;;;;;0.15;0.15;;;;;;;5.73;100.00;96925.38;1026079;28;20282;-74
2023/10/06 01:49:28;;;;;;;0.75;0.68;;;;;;;5.71;100.00;96922.97;1027428;28;20338;-74
2023/10/06 01:49:58;;;;;;;0.10;0.10;;;;;;;5.67;100.00;96927.00;1031201;28;20036;-75
2023/10/06 01:50:31;;;;;;;11.77;2.55;;;;;;;5.66;100.00;96920.16;1030716;28;20779;-76
2023/10/06 01:51:03;;;;;;;0.80;0.55;;;;;;;5.68;100.00;96926.00;1023808;28;20030;-75
2023/10/06 01:51:35;;;;;;;0.50;0.30;;;;;;;5.62;100.00;96913.78;1027033;28;20353;-75
2023/10/06 01:52:07;;;;;;;8.77;1.20;;;;;;;5.61;100.00;96912.19;1022982;29;20270;-75
2023/10/06 01:52:41;;;;;;;1.65;1.48;;;;;;;5.64;100.00;96922.19;1023002;29;20285;-75
2023/10/06 01:53:16;;;;;;;0.52;0.52;;;;;;;5.65;100.00;96923.78;1019066;29;20274;-75
2023/10/06 01:53:46;;;;;;;0.85;0.85;;;;;;;5.64;100.00;96927.41;1023384;28;20852;-75
2023/10/06 01:54:19;;;;;;;1.27;1.17;;;;;;;5.58;100.00;96917.78;1032490;28;20293;-75
2023/10/06 01:54:49;;;;;;;1.38;0.52;;;;;;;5.67;100.00;96927.00;1027657;28;20270;-75
2023/10/06 01:55:23;;;;;;;2.20;1.20;;;;;;;5.68;100.00;96923.38;1031353;28;20290;-76
2023/10/06 01:55:56;;;;;;;2.42;2.28;;;;;;;5.62;100.00;96918.97;1027098;28;20034;-75
2023/10/06 01:56:27;;;;;;;0.10;0.10;;;;;;;5.64;100.00;96928.19;1024983;28;20275;-74
2023/10/06 01:56:57;;;;;;;3.97;2.00;;;;;;;5.64;100.00;96924.78;1030858;28;20261;-74
2023/10/06 01:57:27;;;;;;;2.88;1.92;;;;;;;5.61;100.00;96914.78;1032032;28;20018;-74
2023/10/06 01:57:58;;;;;;;1.52;1.50;;;;;;;5.63;100.00;96920.56;1023494;28;20031;-74
2023/10/06 01:58:29;;;;;;;4.38;1.55;;;;;;;5.57;100.00;96917.00;1027082;28;20027;-75
2023/10/06 01:58:59;;;;;;;1.63;1.25;;;;;;;5.59;100.00;96917.56;1019138;29;20035;-75
2023/10/06 01:59:30;;;;;;;1.15;1.10;;;;;;;5.58;100.00;96917.78;1019191;29;20027;-75
2023/10/06 02:00:01;;;;;;;0.75;0.75;;;;;;;5.54;100.00;96916.59;1016247;29;20024;-75
2023/10/06 02:00:34;;;;;;;0.20;0.20;;;;;;;5.57;100.00;96921.41;1019476;29;20031;-75
2023/10/06 02:01:07;;;;;;;1.08;0.70;;;;;;;5.55;100.00;96920.78;1023461;28;20082;-74
2023/10/06 02:01:41;;;;;;;1.23;1.10;;;;;;;5.53;100.00;96920.19;1021968;28;20260;-75
2023/10/06 02:02:13;;;;;;;2.95;1.35;;;;;;;5.54;100.00;96922.59;1028370;28;20340;-75
2023/10/06 02:02:46;;;;;;;0.40;0.40;;;;;;;5.53;100.00;96922.78;1027053;28;20273;-76
2023/10/06 02:03:23;;;;;;;0.40;0.40;;;;;;;5.50;100.00;96921.41;1028514;28;20298;-75
2023/10/06 02:03:53;;;;;;;1.00;0.40;;;;;;;5.50;100.00;96926.59;1031062;28;21067;-74
2023/10/06 02:04:25;;;;;;;1.50;1.40;;;;;;;5.50;100.00;96923.19;1022964;28;20267;-75
2023/10/06 02:04:59;;;;;;;0.90;0.90;;;;;;;5.50;100.00;96920.56;1023662;28;20049;-73
2023/10/06 02:05:30;;;;;;;1.15;0.65;;;;;;;5.41;100.00;96914.78;1030829;28;20278;-75
2023/10/06 02:06:00;;;;;;;0.52;0.52;;;;;;;5.48;100.00;96922.59;1023881;28;20263;-75
2023/10/06 02:06:31;;;;;;;1.70;1.58;;;;;;;5.44;100.00;96922.19;1022744;29;20102;-75
2023/10/06 02:07:05;;;;;;;0.93;0.93;;;;;;;5.39;100.00;96920.19;1023142;28;20039;-75
2023/10/06 02:07:35;;;;;;;0.63;0.52;;;;;;;5.41;100.00;96923.41;1023772;28;20767;-75
2023/10/06 02:08:09;;;;;;;0.50;0.50;;;;;;;5.36;100.00;96919.78;1023667;28;20263;-73
2023/10/06 02:08:40;;;;;;;2.50;1.10;;;;;;;5.38;100.00;96921.19;1027368;28;20019;-75
2023/10/06 02:09:15;;;;;;;5.68;1.75;;;;;;;5.31;100.00;96912.59;1026931;28;20282;-76
2023/10/06 02:09:45;;;;;;;0.15;0.15;;;;;;;5.33;100.00;96920.19;1024949;28;20146;-75
2023/10/06 02:10:18;;;;;;;0.65;0.65;;;;;;;5.27;100.00;96913.19;1026003;28;20509;-74
2023/10/06 02:10:50;;;;;;;0.32;0.32;;;;;;;5.20;100.00;96911.38;1023082;29;20042;-76
2023/10/06 02:11:28;;;;;;;0.65;0.55;;;;;;;5.32;100.00;96913.38;1023039;29;20419;-75
2023/10/06 02:11:59;;;;;;;0.40;0.40;;;;;;;5.27;100.00;96916.59;1022947;29;20763;-75
2023/10/06 02:12:29;;;;;;;0.50;0.50;;;;;;;5.27;100.00;96926.19;1024292;28;20271;-74
2023/10/06 02:13:00;;;;;;;1.10;0.90;;;;;;;5.22;100.00;96913.78;1024370;28;20452;-74
2023/10/06 02:13:30;;;;;;;0.30;0.30;;;;;;;5.14;100.00;96895.75;1016766;29;20035;-75
2023/10/06 02:14:01;;;;;;;1.33;1.00;;;;;;;5.25;100.00;96930.78;1019317;29;20024;-75
2023/10/06 02:14:31;;;;;;;2.17;1.90;;;;;;;5.22;100.00;96916.38;1018981;29;20083;-74
2023/10/06 02:15:05;;;;;;;0.20;0.20;;;;;;;5.25;100.00;96928.19;1014371;29;20028;-75
2023/10/06 02:15:35;;;;;;;0.80;0.80;;;;;;;5.26;100.00;96920.16;1019580;29;20532;-75
2023/10/06 02:16:06;;;;;;;0.13;0.13;;;;;;;5.24;100.00;96921.41;1023558;28;20339;-73
2023/10/06 02:16:37;;;;;;;0.68;0.63;;;;;;;5.18;100.00;96917.78;1024180;28;20050;-75
2023/10/06 02:17:11;;;;;;;0.50;0.50;;;;;;;5.20;100.00;96932.19;1022998;29;20269;-75
2023/10/06 02:17:42;;;;;;;0.55;0.55;;;;;;;5.19;100.00;96925.38;1023431;28;20023;-75
2023/10/06 02:18:12;;;;;;;1.58;0.32;;;;;;;5.19;100.00;96924.56;1023330;29;20760;-75
2023/10/06 02:18:43;;;;;;;0.55;0.55;;;;;;;5.19;100.00;96924.56;1023892;28;20019;-75
2023/10/06 02:19:16;;;;;;;0.93;0.85;;;;;;;5.11;100.00;96911.78;1028213;28;20027;-75
2023/10/06 02:19:46;;;;;;;1.45;1.02;;;;;;;5.19;100.00;96924.56;1023581;28;20047;-75
2023/10/06 02:20:53;;;;;;;0.47;0.47;;;;;;;5.19;100.00;96925.38;1027149;28;20602;-75
2023/10/06 02:21:24;;;;;;;1.70;0.98;;;;;;;5.18;100.00;96921.16;1025450;28;20259;-75
2023/10/06 02:21:54;;;;;;;2.63;1.75;;;;;;;5.19;100.00;96919.38;1030108;28;20026;-75
2023/10/06 02:22:27;;;;;;;1.67;1.23;;;;;;;5.19;100.00;96919.38;1027283;28;20055;-74
2023/10/06 02:22:58;;;;;;;1.00;0.50;;;;;;;5.16;100.00;96909.34;1022677;28;20472;-75
2023/10/06 02:23:28;;;;;;;0.82;0.82;;;;;;;5.14;100.00;96911.38;1022621;29;20266;-74
2023/10/06 02:24:03;;;;;;;0.45;0.45;;;;;;;5.12;100.00;96902.94;1027433;28;20026;-75
2023/10/06 02:24:34;;;;;;;0.10;0.10;;;;;;;5.16;100.00;96915.38;1027271;28;20070;-74
2023/10/06 02:25:13;;;;;;;1.02;0.63;;;;;;;5.17;100.00;96914.38;1026907;28;20686;-74
2023/10/06 02:25:44;;;;;;;0.10;0.10;;;;;;;5.15;100.00;96907.75;1031084;28;20019;-74
2023/10/06 02:26:14;;;;;;;0.40;0.40;;;;;;;5.14;100.00;96919.19;1031212;28;20285;-75
2023/10/06 02:26:50;;;;;;;0.85;0.40;;;;;;;5.11;100.00;96916.97;1026256;28;20015;-74
2023/10/06 02:27:21;;;;;;;0.10;0.10;;;;;;;5.11;100.00;96914.38;1023336;29;20026;-75
2023/10/06 02:27:54;;;;;;;1.58;1.48;;;;;;;5.12;100.00;96914.16;1024398;28;20263;-75
2023/10/06 02:28:25;;;;;;;1.35;0.63;;;;;;;5.14;100.00;96911.38;1029738;28;20019;-74
2023/10/06 02:28:56;;;;;;;0.65;0.65;;;;;;;5.08;100.00;96904.34;1032682;28;20304;-74
2023/10/06 02:29:26;;;;;;;1.00;1.00;;;;;;;5.13;100.00;96904.53;1023540;28;20078;-74
2023/10/06 02:29:57;;;;;;;0.47;0.47;;;;;;;5.12;100.00;96908.16;1019359;29;20016;-74
2023/10/06 02:30:33;;;;;;;2.30;1.25;;;;;;;5.08;100.00;96905.16;1019501;29;20023;-73
2023/10/06 02:31:05;;;;;;;1.27;1.20;;;;;;;5.12;100.00;96908.94;1021960;28;20559;-75
2023/10/06 02:31:36;;;;;;;0.75;0.75;;;;;;;5.11;100.00;96902.16;1027359;28;20254;-74
2023/10/06 02:32:06;;;;;;;0.17;0.17;;;;;;;5.11;100.00;96903.97;1027347;28;20262;-75
2023/10/06 02:32:37;;;;;;;1.35;0.55;;;;;;;5.09;100.00;96898.16;1023275;29;20023;-73
2023/10/06 02:33:07;;;;;;;0.10;0.10;;;;;;;5.12;100.00;96908.94;1019661;29;20024;-74
2023/10/06 02:33:39;;;;;;;0.00;0.00;;;;;;;5.06;100.00;96893.34;1021169;29;20053;-74
2023/10/06 02:34:21;;;;;;;4.75;2.28;;;;;;;5.10;100.00;96899.78;1023106;29;20542;-75
2023/10/06 02:34:54;;;;;;;0.75;0.30;;;;;;;5.07;100.00;96897.56;1022952;29;20298;-75
2023/10/06 02:35:24;;;;;;;0.75;0.60;;;;;;;5.10;100.00;96900.56;1021329;29;20792;-75
2023/10/06 02:35:56;;;;;;;2.55;0.90;;;;;;;5.07;100.00;96900.16;1027237;28;20274;-75
2023/10/06 02:36:26;;;;;;;1.17;0.88;;;;;;;5.10;100.00;96907.56;1023228;28;20118;-75
2023/10/06 02:36:57;;;;;;;0.95;0.77;;;;;;;5.08;100.00;96902.56;1019139;29;20252;-74
2023/10/06 02:37:28;;;;;;;2.03;1.10;;;;;;;5.05;100.00;96895.16;1023605;28;20066;-73
2023/10/06 02:38:04;;;;;;;1.35;0.52;;;;;;;5.07;100.00;96905.38;1027026;28;20027;-74